AirNav   Pilot Hours Calculator
 
 539 users online  

AL69 Vaughn Airport
Seminole, Alabama, USA

GOING TO SEMINOLE?


FAA INFORMATION EFFECTIVE 31 JANUARY 2019

Location

FAA Identifier: AL69
Lat/Long: 30-30-30.7030N / 087-29-29.9310W
30-30.511717N / 087-29.498850W
30.5085286 / -87.4916475
(estimated)
Elevation: 30 ft. / 9 m (estimated)
Variation: 01E (1985)
From city: 1 mile SW of SEMINOLE, AL
Time zone: UTC -6 (UTC -5 during Daylight Saving Time)
Zip code: 36574

Airport Operations

Airport use: Private use. Permission required prior to landing
Control tower: no
ARTCC: JACKSONVILLE CENTER
FSS: ANNISTON FLIGHT SERVICE STATION
Attendance: UNATNDD
Wind indicator: yes
Segmented circle: no

Airport Communications

WX ASOS at PNS (16 nm E): PHONE 850-436-4799
WX AWOS-3PT at JKA (16 nm SW): 134.525 (251-968-7581)

Nearby radio navigation aids

VOR radial/distance  VOR name  Freq  Var
NUNr284/(8.3)SAUFLEY VOR108.8001E
BFMr098/29.8BROOKLEY VORTAC112.8004E

 
NDB name  Hdg/Dist  Freq  Var  ID
PICKENS287/16.832602WPKZ .--. -.- --..

Airport Services

Runway Information

Runway 18/36

Dimensions: 4000 x 70 ft. / 1219 x 21 m
Surface: turf
RUNWAY 18  RUNWAY 36
Traffic pattern: leftleft

Airport Ownership and Management from official FAA records

Ownership: Privately-owned
Owner: DORRIS E VAUGHN
19755 VAUGHN ROAD
SEMINOLE, AL 36574
Phone 850-572-0061
850-572-7386
Manager: JOHN VAUGHN
18871 VAUGN ROAD
SEMINOLE, AL 36574

Instrument Procedures

There are no published instrument procedures at AL69.

Some nearby airports with instrument procedures:

5R4 - Foley Municipal Airport (12 nm SW)
KNPA - Pensacola Naval Air Station/Forrest Sherman Field (13 nm SE)
KPNS - Pensacola International Airport (16 nm E)
KJKA - Jack Edwards National Airport (16 nm SW)
KCQF - H L Sonny Callahan Airport (20 nm W)
 
Loc | Ops | Rwys | IFR | FBO | Links
Com | Nav | Svcs | Stats | Notes

Continental Motors
AirBoss

 
Area around AL69 (Vaughn Airport)
 
Road maps at: MapQuest Bing Google
 
Aerial photo
No photo
 
Sectional chart

 
Airport distance calculator
Flying to Vaughn Airport? Find the distance to fly.

From to AL69

Sunrise and sunset
Times for 22-Feb-2019
 Local
(UTC-6)
 Zulu
(UTC)
Morning civil twilight06:0012:00
Sunrise06:2512:25
Sunset17:4223:42
Evening civil twilight18:0700:07

Current date and time
Zulu (UTC)  23-Feb-2019 05:37:27
Local (UTC-6)  22-Feb-2019 23:37:27
 
METAR
KNPA 
13nm SE 
230456Z AUTO 11008KT 1/2SM FG VV002 20/20 A3009 RMK AO2 SLP190 T02000200
KPNS 
16nm E 
230453Z AUTO 13009KT 1/2SM R17/2000V2400FT FG VV002 20/19 A3010 RMK AO2 SLP193 T02000189
KJKA 
16nm SW 
230515Z 14009KT 1/2SM FG OVC002 A3008 RMK AO2
KCQF 
20nm W 
230515Z AUTO 14009KT 1 3/4SM BR OVC003 21/21 A3008 RMK AO2
TAF
KNPA 
13nm SE 
2223/2323 11009KT 0400 FG VV002 QNH3006INS TEMPO 2223/2305 1200 BR OVC003 FM231600 14008KT 4800 BR BKN004 OVC015 QNH3009INS FM231800 16010G16KT 8000 BR BKN007 OVC020 QNH3004INS FM232030 17011G16KT 1600 BR OVC003 QNH3000INS AUTOMATED SENSOR METWATCH 2303 TIL 2315 T19/2310Z T24/2320Z FN20034
KPNS 
16nm E 
222135Z 2222/2318 11010KT 1/2SM FG OVC002 FM231700 17012G20KT 5SM BR OVC003
NOTAMs
Click for the latest NOTAMs
NOTAMs are issued by the DoD/FAA and will open in a separate window not controlled by AirNav.

 

 
 

Would you like to see your business listed on this page?

 If your business provides an interesting product or service to pilots, flight crews, aircraft, or users of the Vaughn Airport, you should consider listing it here.  To start the listing process, click on the button below
 
Add a business
 

Other Pages about Vaughn Airport

Update a link
 
Copyright © AirNav, LLC. All rights reserved. Privacy Policy  Contact